Latest Weather Observations for Jabiru

IDD60801

Issued at 5:01 pm CST Tuesday 1 September 2015 (issued every 30 minutes, with the page automatically refreshed every 10 minutes)

About weather observations | Map of weather stations | Latest weather observations for NT | Other Formats
Station Details ID: 014198 Name: JABIRU AIRPORT Lat: -12.66 Lon: 132.89 Height: 26.5 m
Data from the previous 72 hours. | See also: Recent months at Jabiru
Date/Time
CST
Temp
°C
App
Temp
°C
Dew
Point
Rel
Hum
%
Delta-T
°C
Wind Press
QNH
hPa
Press
MSL
hPa
Rain
since 9 am
mm
Dir
 
Spd
km/h
Gust
km/h
Spd
kts
Gust
kts
01/05:00pm 35.2 33.4 9.6 21 14.8 NNW 9 13 5 7 1010.2 1010.0 0.0
01/04:30pm 34.3 32.9 9.5 22 14.2 N 7 11 4 6 1010.2 1010.0 0.0
01/04:00pm 34.8 32.8 8.5 20 14.9 NNE 9 17 5 9 1010.4 1010.2 0.0
01/03:30pm 35.1 34.2 11.5 24 14.0 ESE 7 19 4 10 1010.5 1010.3 0.0
01/03:00pm 33.9 32.6 11.1 25 13.4 SE 9 15 5 8 1011.0 1010.8 0.0
01/02:30pm 34.8 32.9 11.9 25 13.6 NNE 13 22 7 12 1011.4 1011.2 0.0
01/02:00pm 33.4 32.4 12.4 28 12.5 NE 9 17 5 9 1011.9 1011.7 0.0
01/01:30pm 34.1 32.7 13.5 28 12.5 WSW 13 17 7 9 1012.4 1012.2 0.0
01/01:00pm 33.3 32.3 13.4 30 12.0 NE 11 17 6 9 1012.9 1012.7 0.0
01/12:30pm 33.3 33.7 15.3 34 11.2 W 7 13 4 7 1013.6 1013.4 0.0
01/12:00pm 32.8 33.0 15.8 36 10.6 WSW 9 20 5 11 1014.1 1013.9 0.0
01/11:30am 31.3 32.0 16.1 40 9.5 NE 7 11 4 6 1014.7 1014.5 0.0
01/11:00am 30.3 31.3 16.3 42 8.7 NNW 6 13 3 7 1015.3 1015.1 0.0
01/10:30am 29.4 30.4 16.9 47 7.8 N 7 13 4 7 1015.7 1015.5 0.0
01/10:00am 28.3 29.2 17.5 52 6.8 NNW 9 13 5 7 1016.1 1015.9 0.0
01/09:30am 27.9 30.0 18.0 55 6.3 NNW 4 9 2 5 1016.3 1016.1 0.0
01/09:00am 27.1 28.7 17.8 56 5.9 NNW 6 9 3 5 1016.1 1015.9 0.0
01/08:30am 25.9 28.4 17.3 59 5.4 CALM 0 2 0 1 1015.9 1015.7 0.0
01/08:00am 24.5 26.8 16.7 61 4.8 CALM 0 0 0 0 1015.6 1015.4 0.0
01/07:30am 22.1 23.1 16.4 70 3.5 E 6 7 3 4 1015.1 1014.9 0.0
01/07:00am 20.7 21.5 15.9 74 2.9 ENE 6 7 3 4 1014.8 1014.6 0.0
01/06:30am 20.6 22.5 15.8 74 2.9 CALM 0 0 0 0 1014.6 1014.4 0.0
01/06:00am 21.0 22.7 15.3 70 3.4 CALM 0 0 0 0 1014.3 1014.1 0.0
01/05:30am 21.5 23.2 15.3 68 3.7 CALM 0 0 0 0 1014.0 1013.8 0.0
01/05:00am 21.7 23.4 15.3 67 3.8 CALM 0 0 0 0 1013.9 1013.7 0.0
01/04:30am 22.1 23.8 15.2 65 4.1 CALM 0 0 0 0 1014.0 1013.8 0.0
01/04:00am 22.6 23.4 15.9 66 4.0 NNE 6 6 3 3 1014.0 1013.8 0.0
01/03:30am 22.6 24.4 15.4 64 4.3 CALM 0 0 0 0 1014.0 1013.8 0.0
01/03:00am 22.7 24.4 15.3 63 4.4 CALM 0 0 0 0 1014.1 1013.9 0.0
01/02:30am 23.3 24.8 15.6 62 4.6 S 2 7 1 4 1014.3 1014.1 0.0
01/02:00am 23.6 24.2 15.9 62 4.7 SW 7 9 4 5 1014.4 1014.2 0.0
01/01:30am 24.2 24.7 14.9 56 5.6 W 6 9 3 5 1014.4 1014.2 0.0
01/01:00am 25.0 25.3 15.0 53 6.0 W 7 9 4 5 1014.6 1014.4 0.0
01/12:30am 25.3 25.1 14.7 51 6.3 W 9 11 5 6 1014.8 1014.6 0.0
01/12:00am 25.4 25.6 14.2 50 6.6 WNW 6 9 3 5 1014.8 1014.6 0.0
 
Date/Time
CST
Temp
°C
App
Temp
°C
Dew
Point
Rel
Hum
%
Delta-T
°C
Wind Press
QNH
hPa
Press
MSL
hPa
Rain
since 9 am
mm
Dir
 
Spd
km/h
Gust
km/h
Spd
kts
Gust
kts
31/11:30pm 25.4 25.7 14.5 51 6.5 N 6 7 3 4 1014.5 1014.3 0.0
31/11:00pm 26.0 26.6 15.7 53 6.3 NW 7 9 4 5 1014.2 1014.0 0.0
31/10:30pm 26.2 27.5 17.6 59 5.4 NNW 7 11 4 6 1014.0 1013.8 0.0
31/10:00pm 26.6 28.4 18.7 62 5.1 NNW 7 11 4 6 1014.1 1013.9 0.0
31/09:30pm 27.0 27.6 18.6 60 5.4 NNW 13 20 7 11 1013.9 1013.7 0.0
31/09:00pm 27.8 28.2 17.3 52 6.6 N 11 15 6 8 1013.6 1013.4 0.0
31/08:30pm 28.8 29.1 17.0 49 7.4 N 11 17 6 9 1013.2 1013.0 0.0
31/08:00pm 29.3 29.4 17.5 49 7.5 NNW 13 22 7 12 1012.6 1012.4 0.0
31/07:30pm 30.2 29.9 17.3 46 8.2 NNW 15 24 8 13 1012.2 1012.0 0.0
31/07:00pm 32.4 31.1 9.2 24 13.1 NNE 6 7 3 4 1011.5 1011.3 0.0
31/06:30pm 33.9 32.4 8.5 21 14.3 ENE 6 7 3 4 1011.2 1011.0 0.0
31/06:00pm 35.1 33.5 8.0 19 15.2 E 6 9 3 5 1011.0 1010.8 0.0
31/05:30pm 35.7 33.7 8.5 19 15.4 SSW 9 13 5 7 1010.8 1010.6 0.0
31/05:00pm 35.7 34.2 8.5 19 15.4 NNE 6 11 3 6 1010.7 1010.5 0.0
31/04:30pm 35.4 32.2 8.3 19 15.3 ESE 15 22 8 12 1010.6 1010.4 0.0
31/04:00pm 36.1 33.4 8.8 19 15.6 ESE 13 32 7 17 1010.8 1010.6 0.0
31/03:30pm 35.9 35.2 10.2 21 15.0 SW 4 9 2 5 1011.2 1011.0 0.0
31/03:00pm 35.7 34.0 10.0 21 14.9 NNE 9 17 5 9 1011.5 1011.3 0.0
31/02:30pm 35.1 33.1 10.2 22 14.5 E 11 20 6 11 1012.0 1011.8 0.0
31/02:00pm 35.1 33.9 11.5 24 14.0 NNE 9 17 5 9 1012.5 1012.3 0.0
31/01:30pm 34.5 32.1 12.8 27 13.1 E 17 24 9 13 1013.0 1012.8 0.0
31/01:00pm 33.9 31.4 12.3 27 12.9 ENE 17 28 9 15 1013.5 1013.3 0.0
31/12:30pm 33.2 31.2 12.8 29 12.2 ESE 15 24 8 13 1014.1 1013.9 0.0
31/12:00pm 33.1 31.4 13.7 31 11.8 E 15 22 8 12 1014.6 1014.4 0.0
31/11:30am 31.5 32.4 16.6 40 9.4 ENE 7 13 4 7 1015.3 1015.1 0.0
31/11:00am 30.1 31.2 17.9 48 7.8 SE 9 13 5 7 1015.9 1015.7 0.0
31/10:30am 29.5 29.5 17.3 47 7.7 E 13 20 7 11 1016.4 1016.2 0.0
31/10:00am 28.3 29.2 18.4 55 6.3 ENE 11 20 6 11 1016.6 1016.4 0.0
31/09:30am 27.6 29.5 19.7 62 5.1 ENE 9 13 5 7 1016.5 1016.3 0.0
31/09:00am 26.5 29.1 20.1 68 4.2 ENE 6 9 3 5 1016.6 1016.4 0.0
31/08:30am 25.4 29.4 20.6 75 3.1 CALM 0 0 0 0 1016.4 1016.2 0.0
31/08:00am 23.8 26.8 20.1 80 2.4 ESE 4 9 2 5 1016.2 1016.0 0.0
31/07:30am 22.6 26.1 19.6 83 1.9 CALM 0 0 0 0 1015.9 1015.7 0.0
31/07:00am 21.4 24.6 18.8 85 1.6 CALM 0 0 0 0 1015.6 1015.4 0.0
31/06:30am 21.2 24.4 18.8 86 1.5 CALM 0 0 0 0 1015.2 1015.0 0.0
31/06:00am 21.8 24.2 19.7 88 1.3 S 6 7 3 4 1014.8 1014.6 0.0
31/05:30am 21.6 23.9 19.5 88 1.3 S 6 7 3 4 1014.6 1014.4 0.0
31/05:00am 21.6 23.8 19.2 86 1.5 SSW 6 7 3 4 1014.4 1014.2 0.0
31/04:30am 22.0 23.9 18.6 81 2.1 SW 6 7 3 4 1014.5 1014.3 0.0
31/04:00am 22.3 25.5 18.9 81 2.1 CALM 0 4 0 2 1014.6 1014.4 0.0
31/03:30am 22.7 26.0 19.1 80 2.3 CALM 0 0 0 0 1014.7 1014.5 0.0
31/03:00am 23.3 25.8 19.0 77 2.7 W 4 7 2 4 1014.7 1014.5 0.0
31/02:30am 23.8 25.9 19.3 76 2.9 WNW 7 11 4 6 1014.8 1014.6 0.0
31/02:00am 24.0 26.0 19.1 74 3.1 WNW 7 9 4 5 1015.2 1015.0 0.0
31/01:30am 24.5 26.0 18.0 67 4.1 W 7 9 4 5 1015.2 1015.0 0.0
31/01:00am 25.6 27.3 18.0 63 4.8 NW 6 7 3 4 1015.2 1015.0 0.0
31/12:30am 25.8 28.7 18.2 63 4.8 CALM 0 6 0 3 1015.4 1015.2 0.0
31/12:00am 25.7 27.1 17.9 62 4.9 NE 7 11 4 6 1015.5 1015.3 0.0
 
Date/Time
CST
Temp
°C
App
Temp
°C
Dew
Point
Rel
Hum
%
Delta-T
°C
Wind Press
QNH
hPa
Press
MSL
hPa
Rain
since 9 am
mm
Dir
 
Spd
km/h
Gust
km/h
Spd
kts
Gust
kts
30/11:30pm 25.8 27.4 18.2 63 4.8 NNE 7 13 4 7 1015.7 1015.5 0.0
30/11:00pm 25.6 27.5 19.0 67 4.2 NNE 7 9 4 5 1015.8 1015.6 0.0
30/10:30pm 26.1 27.6 19.0 65 4.5 N 9 11 5 6 1015.3 1015.1 0.0
30/10:00pm 26.6 28.0 18.7 62 5.1 NNW 9 13 5 7 1014.9 1014.7 0.0
30/09:30pm 27.1 28.5 18.7 60 5.4 NW 9 13 5 7 1014.7 1014.5 0.0
30/09:00pm 27.7 28.6 18.4 57 5.9 NNW 11 17 6 9 1014.4 1014.2 0.0
30/08:30pm 28.7 28.6 17.9 52 6.9 NNW 15 22 8 12 1013.9 1013.7 0.0
30/08:00pm 29.7 29.3 17.2 47 7.9 N 15 20 8 11 1013.5 1013.3 0.0
30/07:30pm 30.7 29.8 15.9 40 9.2 N 15 30 8 16 1012.9 1012.7 0.0
30/07:00pm 32.7 32.0 11.3 27 12.5 E 6 7 3 4 1012.2 1012.0 0.0
30/06:30pm 33.9 32.4 10.5 24 13.6 E 9 15 5 8 1011.7 1011.5 0.0
30/06:00pm 34.6 32.7 10.4 23 14.1 E 11 17 6 9 1011.6 1011.4 0.0
30/05:30pm 35.3 33.0 10.4 22 14.5 E 13 28 7 15 1011.3 1011.1 0.0
30/05:00pm 35.6 33.0 10.6 22 14.6 E 15 22 8 12 1011.3 1011.1 0.0
30/04:30pm 35.9 34.9 10.9 22 14.7 SSE 7 13 4 7 1011.2 1011.0 0.0
30/04:00pm 36.1 34.3 11.0 22 14.8 NNE 11 24 6 13 1011.2 1011.0 0.0
30/03:30pm 34.7 31.7 10.5 23 14.1 NNE 17 28 9 15 1011.5 1011.3 0.0
30/03:00pm 35.3 32.8 11.0 23 14.3 ESE 15 28 8 15 1011.8 1011.6 0.0
30/02:30pm 35.6 32.4 11.3 23 14.4 NE 19 30 10 16 1012.2 1012.0 0.0
30/02:00pm 35.0 31.6 11.4 24 14.0 ENE 20 32 11 17 1012.7 1012.5 0.0
30/01:30pm 34.1 30.9 11.3 25 13.4 E 19 32 10 17 1013.3 1013.1 0.0
30/01:00pm 34.3 30.6 12.6 27 13.0 ENE 24 37 13 20 1013.8 1013.6 0.0
30/12:30pm 33.3 31.0 12.9 29 12.2 ESE 17 30 9 16 1014.5 1014.3 0.0
30/12:00pm 33.7 31.6 13.7 30 12.2 E 17 30 9 16 1015.1 1014.9 0.0
30/11:30am 33.0 30.3 13.6 31 11.7 E 20 28 11 15 1015.9 1015.7 0.0
30/11:00am 31.9 29.4 14.1 34 10.8 ENE 20 30 11 16 1016.4 1016.2 0.0
30/10:30am 30.5 29.5 16.5 43 8.8 ESE 17 26 9 14 1016.7 1016.5 0.0
30/10:00am 29.8 31.2 18.6 51 7.2 ENE 9 17 5 9 1017.0 1016.8 0.0
30/09:30am 28.1 29.7 19.1 58 5.8 ESE 9 13 5 7 1017.0 1016.8 0.0
30/09:00am 26.7 28.7 19.1 63 4.9 SE 7 9 4 5 1017.0 1016.8 0.0
30/08:30am 25.4 28.2 18.8 67 4.2 SSW 2 7 1 4 1017.0 1016.8 0.0
30/08:00am 24.0 27.2 18.9 73 3.2 CALM 0 4 0 2 1016.6 1016.4 0.0
30/07:30am 22.6 24.6 18.8 79 2.4 SSE 6 7 3 4 1016.4 1016.2 0.0
30/07:00am 22.1 24.5 18.9 82 2.0 SE 4 7 2 4 1016.0 1015.8 0.0
30/06:30am 21.7 24.6 18.1 80 2.2 CALM 0 0 0 0 1015.6 1015.4 0.0
30/06:00am 21.8 24.7 18.2 80 2.2 CALM 0 0 0 0 1015.4 1015.2 0.0
30/05:30am 22.1 24.7 18.5 80 2.3 N 2 7 1 4 1015.1 1014.9 0.0
30/05:00am 22.0 23.9 18.6 81 2.1 N 6 7 3 4 1014.9 1014.7 0.0
30/04:30am 22.3 25.3 18.5 79 2.4 CALM 0 0 0 0 1014.7 1014.5 0.0
30/04:00am 23.0 25.0 18.7 77 2.7 SSW 6 7 3 4 1014.6 1014.4 0.0
30/03:30am 22.7 24.4 18.5 77 2.6 SSW 7 9 4 5 1014.6 1014.4 0.0
30/03:00am 23.0 24.7 18.5 76 2.8 SW 7 7 4 4 1014.8 1014.6 0.0
30/02:30am 23.3 25.0 18.6 75 3.0 SW 7 9 4 5 1014.9 1014.7 0.0
30/02:00am 23.4 25.2 18.7 75 3.0 SW 7 9 4 5 1015.1 1014.9 0.0
30/01:30am 23.9 26.9 18.5 72 3.4 CALM 0 0 0 0 1015.1 1014.9 0.0
30/01:00am 24.3 27.4 18.7 71 3.6 CALM 0 0 0 0 1015.4 1015.2 0.0
30/12:30am 25.0 26.9 18.9 69 3.9 W 7 9 4 5 1015.5 1015.3 0.0
30/12:00am 24.9 26.9 18.8 69 3.9 NNE 6 9 3 5 1015.7 1015.5 0.0
 
Date/Time
CST
Temp
°C
App
Temp
°C
Dew
Point
Rel
Hum
%
Delta-T
°C
Wind Press
QNH
hPa
Press
MSL
hPa
Rain
since 9 am
mm
Dir
 
Spd
km/h
Gust
km/h
Spd
kts
Gust
kts
29/11:30pm 25.4 27.2 18.8 67 4.2 NNW 7 11 4 6 1015.4 1015.2 0.0
29/11:00pm 25.9 27.0 18.8 65 4.5 NNW 11 15 6 8 1015.3 1015.1 0.0
29/10:30pm 26.3 27.3 18.7 63 4.9 NNW 11 17 6 9 1015.3 1015.1 0.0
29/10:00pm 26.8 27.4 18.6 60 5.2 NNW 13 19 7 10 1015.1 1014.9 0.0
29/09:30pm 27.6 27.4 18.6 58 5.8 NNW 17 22 9 12 1014.7 1014.5 0.0
29/09:00pm 28.3 28.4 18.4 55 6.3 NNW 15 22 8 12 1014.4 1014.2 0.0
29/08:30pm 29.4 30.2 18.2 51 7.2 NW 11 17 6 9 1013.9 1013.7 0.0
29/08:00pm 30.2 29.6 17.6 46 8.0 NNW 17 24 9 13 1013.4 1013.2 0.0
29/07:30pm 31.5 31.6 15.5 38 9.9 NNE 9 11 5 6 1012.9 1012.7 0.0
29/07:00pm 32.2 32.4 15.7 37 10.3 NNE 9 11 5 6 1012.5 1012.3 0.0
29/06:30pm 33.0 32.9 15.0 33 11.1 NE 9 13 5 7 1012.2 1012.0 0.0
29/06:00pm 33.9 33.1 13.9 30 12.2 NE 11 15 6 8 1012.0 1011.8 0.0
29/05:30pm 34.1 33.5 14.6 31 12.0 ENE 11 19 6 10 1011.8 1011.6 0.0

Other Formats:

Comma delimited format used in spreadsheet applications
http://www.bom.gov.au/fwo/IDD60801/IDD60801.94137.axf

JavaScript Object Notation format (JSON) in row-major order
http://www.bom.gov.au/fwo/IDD60801/IDD60801.94137.json